createdAt,value
2023-02-14T00:00:22.360Z,103101.22
2023-02-14T00:02:51.077Z,103083.59
2023-02-14T00:05:21.002Z,103118.63
2023-02-14T00:07:49.100Z,103114.13
2023-02-14T00:10:17.661Z,103103.75
2023-02-14T00:12:46.099Z,103079.59
2023-02-14T00:15:25.825Z,103080.16
2023-02-14T00:18:03.335Z,103091.94
2023-02-14T00:20:40.949Z,103072.91
2023-02-14T00:23:10.757Z,103087.50
2023-02-14T00:25:41.383Z,103056.78
2023-02-14T00:28:11.684Z,103062.00
2023-02-14T00:30:44.022Z,103078.81
2023-02-14T00:33:13.857Z,103059.63
2023-02-14T00:35:44.142Z,103063.06
2023-02-14T00:38:12.541Z,103082.00
2023-02-14T00:40:43.275Z,103074.78
2023-02-14T00:43:12.472Z,103049.25
2023-02-14T00:45:41.915Z,103073.91
2023-02-14T00:48:10.242Z,103071.66
2023-02-14T00:50:40.874Z,103050.66
2023-02-14T00:53:09.898Z,103052.88
2023-02-14T00:55:38.017Z,103078.63
2023-02-14T00:58:05.995Z,103036.25
2023-02-14T01:00:33.982Z,103035.44
2023-02-14T01:03:02.053Z,103061.16
2023-02-14T01:05:30.228Z,103052.47
2023-02-14T01:07:59.560Z,103056.31
2023-02-14T01:10:27.451Z,103056.44
2023-02-14T01:12:55.385Z,103058.72
2023-02-14T01:15:23.188Z,103053.25
2023-02-14T01:17:51.199Z,103046.19
2023-02-14T01:20:19.497Z,103062.03
2023-02-14T01:22:47.513Z,103054.63
2023-02-14T01:25:17.085Z,103052.72
2023-02-14T01:27:45.266Z,103049.41
2023-02-14T01:30:14.756Z,103049.94
2023-02-14T01:32:43.415Z,103055.22
2023-02-14T01:35:11.836Z,103056.06
2023-02-14T01:37:40.188Z,103059.06
2023-02-14T01:40:12.663Z,103062.81
2023-02-14T01:42:45.083Z,103058.69
2023-02-14T01:45:19.827Z,103056.19
2023-02-14T01:47:51.600Z,103063.59
2023-02-14T01:50:25.369Z,103062.00
2023-02-14T01:52:58.991Z,103069.13
2023-02-14T01:55:30.228Z,103068.03
2023-02-14T01:58:04.361Z,103057.44
2023-02-14T02:00:51.733Z,103062.75
2023-02-14T02:03:22.193Z,103071.34
2023-02-14T02:05:53.096Z,103074.22
2023-02-14T02:08:21.555Z,103068.53
2023-02-14T02:10:49.658Z,103076.88
2023-02-14T02:13:21.186Z,103071.41
2023-02-14T02:15:58.825Z,103070.38
2023-02-14T02:18:38.980Z,103057.16
2023-02-14T02:21:34.253Z,103024.66
2023-02-14T02:24:22.114Z,103018.63
2023-02-14T02:27:20.261Z,103028.47
2023-02-14T02:30:23.523Z,103038.25
2023-02-14T02:33:46.020Z,103051.06
2023-02-14T02:36:46.064Z,103054.00
2023-02-14T02:39:34.542Z,103055.78
2023-02-14T02:42:11.846Z,103041.63
2023-02-14T02:44:51.210Z,103059.53
2023-02-14T02:47:27.426Z,103056.84
2023-02-14T02:50:17.474Z,103065.16
2023-02-14T02:53:04.243Z,103065.44
2023-02-14T02:55:59.200Z,103075.22
2023-02-14T02:58:32.186Z,103062.22
2023-02-14T03:01:04.072Z,103069.88
2023-02-14T03:03:52.503Z,103056.31
2023-02-14T03:06:20.585Z,103074.34
2023-02-14T03:08:57.903Z,103067.81
2023-02-14T03:11:28.428Z,103077.09
2023-02-14T03:14:20.444Z,103073.59
2023-02-14T03:17:00.489Z,103076.94
2023-02-14T03:20:05.915Z,103078.41
2023-02-14T03:22:49.178Z,103090.44
2023-02-14T03:25:32.559Z,103091.16
2023-02-14T03:28:08.341Z,103095.81
2023-02-14T03:30:43.750Z,103090.56
2023-02-14T03:33:20.026Z,103093.50
2023-02-14T03:35:56.070Z,103102.19
2023-02-14T03:38:32.979Z,103103.47
2023-02-14T03:41:05.353Z,103096.00
2023-02-14T03:43:37.799Z,103105.28
2023-02-14T03:46:11.646Z,103101.53
2023-02-14T03:48:43.231Z,103111.47
2023-02-14T03:51:22.216Z,103107.13
2023-02-14T03:54:02.126Z,103104.78
2023-02-14T03:56:37.738Z,103108.47
2023-02-14T03:59:11.651Z,103106.44
2023-02-14T04:01:47.889Z,103116.34
2023-02-14T04:04:21.821Z,103104.63
2023-02-14T04:06:52.263Z,103112.84
2023-02-14T04:09:20.298Z,103105.94
2023-02-14T04:11:50.827Z,103095.75
2023-02-14T04:14:19.285Z,103098.22
2023-02-14T04:17:07.902Z,103095.22
2023-02-14T04:19:36.860Z,103095.75
2023-02-14T04:22:04.797Z,103097.06
2023-02-14T04:24:32.810Z,103100.41
2023-02-14T04:27:11.239Z,103100.84
2023-02-14T04:29:43.832Z,103115.91
2023-02-14T04:32:14.003Z,103114.81
2023-02-14T04:34:42.395Z,103112.03
2023-02-14T04:37:10.957Z,103120.28
2023-02-14T04:39:39.445Z,103120.91
2023-02-14T04:42:09.364Z,103105.22
2023-02-14T04:44:38.294Z,103097.56
2023-02-14T04:47:07.362Z,103092.09
2023-02-14T04:49:35.876Z,103093.06
2023-02-14T04:52:05.486Z,103093.06
2023-02-14T04:54:33.930Z,103095.22
2023-02-14T04:57:02.204Z,103092.22
2023-02-14T04:59:31.545Z,103086.34
2023-02-14T05:01:59.627Z,103088.69
2023-02-14T05:04:27.821Z,103090.03
2023-02-14T05:06:55.836Z,103090.88
2023-02-14T05:09:23.798Z,103093.44
2023-02-14T05:11:51.883Z,103089.66
2023-02-14T05:14:20.253Z,103096.94
2023-02-14T05:16:49.572Z,103102.38
2023-02-14T05:19:17.419Z,103092.34
2023-02-14T05:21:47.073Z,103095.53
2023-02-14T05:24:15.202Z,103101.13
2023-02-14T05:26:43.124Z,103099.53
2023-02-14T05:29:11.305Z,103090.75
2023-02-14T05:31:39.612Z,103071.84
2023-02-14T05:34:09.208Z,103087.28
2023-02-14T05:36:37.262Z,103120.44
2023-02-14T05:39:06.222Z,103105.81
2023-02-14T05:41:34.188Z,103112.69
2023-02-14T05:44:02.310Z,103121.41
2023-02-14T05:46:30.256Z,103109.53
2023-02-14T05:48:58.546Z,103133.16
2023-02-14T05:51:28.866Z,103130.63
2023-02-14T05:53:57.835Z,103135.88
2023-02-14T05:56:25.938Z,103133.91
2023-02-14T05:58:53.952Z,103133.91
2023-02-14T06:01:27.009Z,103132.19
2023-02-14T06:03:54.981Z,103133.91
2023-02-14T06:06:22.874Z,103125.91
2023-02-14T06:08:52.075Z,103146.00
2023-02-14T06:11:20.097Z,103144.22
2023-02-14T06:13:48.240Z,103145.84
2023-02-14T06:16:16.120Z,103148.22
2023-02-14T06:18:45.068Z,103150.75
2023-02-14T06:21:12.931Z,103152.91
2023-02-14T06:23:40.769Z,103137.66
2023-02-14T06:26:09.960Z,103118.06
2023-02-14T06:28:38.018Z,103115.31
2023-02-14T06:31:06.460Z,103102.06
2023-02-14T06:33:34.563Z,103133.34
2023-02-14T06:36:02.513Z,103125.41
2023-02-14T06:38:30.599Z,103136.16
2023-02-14T06:41:04.626Z,103131.00
2023-02-14T06:43:34.783Z,103121.59
2023-02-14T06:46:03.086Z,103136.38
2023-02-14T06:48:31.474Z,103130.25
2023-02-14T06:50:59.753Z,103120.00
2023-02-14T06:53:28.129Z,103101.44
2023-02-14T06:55:56.395Z,103114.06
2023-02-14T06:58:24.620Z,103127.28
2023-02-14T07:00:56.008Z,103113.84
2023-02-14T07:03:27.230Z,103132.63
2023-02-14T07:05:55.339Z,103062.34
2023-02-14T07:08:26.220Z,103058.75
2023-02-14T07:10:58.870Z,103058.47
2023-02-14T07:13:27.101Z,103043.25
2023-02-14T07:15:58.469Z,103063.66
2023-02-14T07:18:32.109Z,103062.84
2023-02-14T07:21:00.715Z,103067.38
2023-02-14T07:23:28.943Z,103033.78
2023-02-14T07:25:57.313Z,103053.72
2023-02-14T07:28:25.313Z,103049.22
2023-02-14T07:30:53.535Z,103047.09
2023-02-14T07:33:26.970Z,103037.22
2023-02-14T07:35:54.830Z,103043.25
2023-02-14T07:38:23.155Z,103040.84
2023-02-14T07:40:54.301Z,103034.75
2023-02-14T07:43:22.310Z,103036.38
2023-02-14T07:45:51.754Z,103031.16
2023-02-14T07:48:20.810Z,103024.97
2023-02-14T07:50:50.347Z,103022.44
2023-02-14T07:53:18.295Z,103025.41
2023-02-14T07:55:50.810Z,103011.38
2023-02-14T07:58:18.824Z,103014.56
2023-02-14T08:00:47.620Z,103008.97
2023-02-14T08:03:16.323Z,103010.31
2023-02-14T08:05:44.628Z,103005.38
2023-02-14T08:08:14.224Z,102988.72
2023-02-14T08:10:45.038Z,103001.56
2023-02-14T08:13:12.102Z,102995.09
2023-02-14T08:15:59.754Z,103001.75
2023-02-14T08:18:27.873Z,103002.56
2023-02-14T08:20:55.977Z,102993.34
2023-02-14T08:23:25.376Z,102985.50
2023-02-14T08:25:54.005Z,102973.56
2023-02-14T08:28:22.068Z,102970.25
2023-02-14T08:30:50.243Z,102965.84
2023-02-14T08:33:18.275Z,102948.09
2023-02-14T08:35:46.272Z,102874.03
2023-02-14T08:38:14.519Z,102865.03
2023-02-14T08:40:55.684Z,102791.88
2023-02-14T08:43:23.713Z,102737.88
2023-02-14T08:45:57.668Z,102744.72
2023-02-14T08:48:28.565Z,102676.16
2023-02-14T08:51:06.887Z,102655.72
2023-02-14T08:53:35.512Z,102663.16
2023-02-14T08:56:05.893Z,102673.91
2023-02-14T08:58:35.835Z,102700.63
2023-02-14T09:01:10.128Z,102706.31
2023-02-14T09:03:38.763Z,102660.91
2023-02-14T09:06:09.389Z,102648.88
2023-02-14T09:08:40.049Z,102630.66
2023-02-14T09:11:11.110Z,102457.03
2023-02-14T09:13:39.105Z,102441.03
2023-02-14T09:16:08.103Z,102390.13
2023-02-14T09:18:36.056Z,102356.75
2023-02-14T09:21:08.129Z,102319.25
2023-02-14T09:23:36.213Z,102352.59
2023-02-14T09:26:06.922Z,102353.47
2023-02-14T09:28:37.182Z,102369.19
2023-02-14T09:31:10.725Z,102363.75
2023-02-14T09:33:40.903Z,102411.41
2023-02-14T09:36:12.668Z,102411.34
2023-02-14T09:38:41.136Z,102454.53
2023-02-14T09:41:11.195Z,102428.91
2023-02-14T09:43:49.310Z,102388.41
2023-02-14T09:46:20.247Z,102380.38
2023-02-14T09:48:49.834Z,102357.19
2023-02-14T09:51:21.532Z,102349.78
2023-02-14T09:53:54.593Z,102380.09
2023-02-14T09:56:42.789Z,102357.81
2023-02-14T09:59:34.499Z,102346.25
2023-02-14T10:02:22.854Z,102353.84
2023-02-14T10:05:11.515Z,102347.91
2023-02-14T10:07:52.871Z,102379.78
2023-02-14T10:10:41.997Z,102426.47
2023-02-14T10:13:18.063Z,102405.09
2023-02-14T10:16:12.827Z,102462.31
2023-02-14T10:18:46.446Z,102466.38
2023-02-14T10:21:21.351Z,102472.88
2023-02-14T10:23:54.406Z,102487.38
2023-02-14T10:26:29.088Z,102570.34
2023-02-14T10:28:57.892Z,102628.31
2023-02-14T10:31:44.440Z,102681.59
2023-02-14T10:34:18.081Z,102768.75
2023-02-14T10:37:00.494Z,103015.69
2023-02-14T10:39:44.560Z,104004.59
2023-02-14T10:42:26.552Z,104058.03
2023-02-14T10:45:06.775Z,103854.03
2023-02-14T10:47:45.168Z,103606.25
2023-02-14T10:50:20.859Z,103216.03
2023-02-14T10:52:59.184Z,102941.94
2023-02-14T10:55:39.594Z,102800.00
2023-02-14T10:58:13.213Z,102797.03
2023-02-14T11:00:48.585Z,102855.88
2023-02-14T11:03:18.982Z,102855.50
2023-02-14T11:05:49.619Z,102823.25
2023-02-14T11:08:25.649Z,102825.53
2023-02-14T11:10:55.173Z,102861.63
2023-02-14T11:13:32.249Z,102846.22
2023-02-14T11:16:03.256Z,102856.66
2023-02-14T11:18:36.208Z,102888.72
2023-02-14T11:21:10.813Z,102866.56
2023-02-14T11:23:42.365Z,102887.72
2023-02-14T11:26:17.816Z,102914.00
2023-02-14T11:28:53.663Z,102906.66
2023-02-14T11:31:30.785Z,102892.69
2023-02-14T11:34:04.737Z,102922.09
2023-02-14T11:36:41.251Z,102910.75
2023-02-14T11:39:29.453Z,102905.38
2023-02-14T11:42:00.191Z,102953.81
2023-02-14T11:44:33.157Z,102968.63
2023-02-14T11:47:21.679Z,103033.94
2023-02-14T11:50:15.683Z,102870.63
2023-02-14T11:52:52.045Z,102653.19
2023-02-14T11:55:28.020Z,102555.31
2023-02-14T11:57:57.719Z,102539.38
2023-02-14T12:00:27.023Z,102451.75
2023-02-14T12:02:57.488Z,102323.22
2023-02-14T12:05:30.293Z,102424.59
2023-02-14T12:08:00.280Z,102464.13
2023-02-14T12:10:30.825Z,102468.72
2023-02-14T12:13:04.253Z,102514.81
2023-02-14T12:15:36.816Z,102508.53
2023-02-14T12:18:41.512Z,102415.00
2023-02-14T12:21:39.870Z,102402.78
2023-02-14T12:24:17.867Z,102348.28
2023-02-14T12:26:51.850Z,102320.16
2023-02-14T12:29:26.264Z,102269.59
2023-02-14T12:31:57.907Z,102271.34
2023-02-14T12:34:26.229Z,102269.09
2023-02-14T12:37:18.363Z,102275.59
2023-02-14T12:40:04.293Z,102229.75
2023-02-14T12:42:57.652Z,102211.19
2023-02-14T12:45:37.979Z,102189.00
2023-02-14T12:48:16.730Z,102192.69
2023-02-14T12:50:55.631Z,102183.03
2023-02-14T12:53:43.508Z,102165.41
2023-02-14T12:56:18.248Z,102157.84
2023-02-14T12:58:57.891Z,102153.56
2023-02-14T13:01:56.441Z,102134.31
2023-02-14T13:04:46.116Z,102142.75
2023-02-14T13:07:27.517Z,102140.03
2023-02-14T13:10:06.261Z,102140.97
2023-02-14T13:12:42.210Z,102123.09
2023-02-14T13:15:23.598Z,102114.25
2023-02-14T13:17:56.386Z,102124.50
2023-02-14T13:20:47.277Z,102084.16
2023-02-14T13:23:20.309Z,102087.66
2023-02-14T13:25:55.557Z,102081.75
2023-02-14T13:28:24.256Z,102070.34
2023-02-14T13:30:52.604Z,102092.09
2023-02-14T13:33:34.775Z,102070.38
2023-02-14T13:36:07.965Z,102058.72
2023-02-14T13:38:42.283Z,102055.75
2023-02-14T13:41:13.670Z,102061.22
2023-02-14T13:44:03.156Z,102050.44
2023-02-14T13:46:55.559Z,102059.69
2023-02-14T13:49:31.787Z,102039.91
2023-02-14T13:52:03.831Z,102042.03
2023-02-14T13:54:37.226Z,102045.00
2023-02-14T13:57:28.301Z,102064.19
2023-02-14T14:00:32.415Z,102032.59
2023-02-14T14:03:01.540Z,102026.88
2023-02-14T14:06:01.729Z,102013.47
2023-02-14T14:08:48.783Z,102027.88
2023-02-14T14:11:59.684Z,102030.22
2023-02-14T14:14:36.312Z,102016.31
2023-02-14T14:17:27.703Z,102007.28
2023-02-14T14:19:59.581Z,102038.19
2023-02-14T14:22:29.413Z,102005.78
2023-02-14T14:25:00.648Z,102007.97
2023-02-14T14:27:33.330Z,101993.16
2023-02-14T14:30:05.967Z,102008.72
2023-02-14T14:32:35.833Z,101986.66
2023-02-14T14:35:06.388Z,101991.41
2023-02-14T14:37:36.943Z,101988.72
2023-02-14T14:40:10.869Z,102127.34
2023-02-14T14:42:41.997Z,102132.13
2023-02-14T14:45:23.177Z,102165.53
2023-02-14T14:47:54.335Z,102122.28
2023-02-14T14:50:25.507Z,102116.69
2023-02-14T14:52:56.648Z,102153.78
2023-02-14T14:55:27.692Z,102146.41
2023-02-14T14:57:57.558Z,102149.72
2023-02-14T15:00:29.703Z,102154.16
2023-02-14T15:03:04.057Z,102126.22
2023-02-14T15:05:35.379Z,102108.75
2023-02-14T15:08:23.638Z,102117.16
2023-02-14T15:10:55.666Z,102167.41
2023-02-14T15:13:51.343Z,102158.66
2023-02-14T15:16:23.307Z,102161.69
2023-02-14T15:18:52.964Z,102151.25
2023-02-14T15:21:22.391Z,102271.38
2023-02-14T15:23:51.098Z,102313.19
2023-02-14T15:26:24.373Z,102382.78
2023-02-14T15:28:57.731Z,102495.22
2023-02-14T15:31:32.125Z,102768.13
2023-02-14T15:34:02.937Z,102753.88
2023-02-14T15:36:32.242Z,102756.84
2023-02-14T15:39:03.618Z,102750.03
2023-02-14T15:41:37.397Z,102700.06
2023-02-14T15:44:05.973Z,102674.59
2023-02-14T15:46:38.613Z,102646.31
2023-02-14T15:49:11.930Z,102545.84
2023-02-14T15:51:41.223Z,102540.53
2023-02-14T15:54:22.062Z,102472.81
2023-02-14T15:56:53.835Z,102454.47
2023-02-14T15:59:26.394Z,102585.44
2023-02-14T16:01:59.451Z,102613.78
2023-02-14T16:04:30.023Z,102624.59
2023-02-14T16:07:17.505Z,102820.69
2023-02-14T16:09:46.566Z,102931.91
2023-02-14T16:12:30.623Z,102985.72
2023-02-14T16:15:18.744Z,103022.72
2023-02-14T16:17:48.656Z,103052.72
2023-02-14T16:20:29.363Z,103054.41
2023-02-14T16:23:17.266Z,103078.16
2023-02-14T16:25:47.746Z,103087.91
2023-02-14T16:28:16.286Z,103086.88
2023-02-14T16:30:46.720Z,103090.16
2023-02-14T16:33:21.147Z,103103.25
2023-02-14T16:35:50.132Z,103110.00
2023-02-14T16:38:20.457Z,103123.84
2023-02-14T16:40:50.580Z,103128.69
2023-02-14T16:43:20.761Z,103138.06
2023-02-14T16:45:49.680Z,103146.53
2023-02-14T16:48:20.358Z,103148.16
2023-02-14T16:50:49.411Z,103152.50
2023-02-14T16:53:26.394Z,103155.66
2023-02-14T16:55:56.001Z,103168.72
2023-02-14T16:58:29.846Z,103171.97
2023-02-14T17:00:58.731Z,103186.72
2023-02-14T17:03:29.688Z,103188.94
2023-02-14T17:06:06.322Z,103204.38
2023-02-14T17:08:43.662Z,103218.97
2023-02-14T17:11:12.263Z,103238.06
2023-02-14T17:13:44.504Z,103234.63
2023-02-14T17:16:15.798Z,103249.38
2023-02-14T17:18:47.859Z,103238.31
2023-02-14T17:21:18.182Z,103250.28
2023-02-14T17:23:46.164Z,103249.75
2023-02-14T17:26:14.415Z,103301.56
2023-02-14T17:28:42.627Z,103429.03
2023-02-14T17:31:11.938Z,103548.19
2023-02-14T17:33:40.996Z,103613.16
2023-02-14T17:36:12.710Z,103654.16
2023-02-14T17:38:43.567Z,103704.69
2023-02-14T17:41:13.974Z,103679.84
2023-02-14T17:43:42.046Z,103690.84
2023-02-14T17:46:10.416Z,103688.66
2023-02-14T17:48:38.510Z,103683.94
2023-02-14T17:51:07.176Z,103687.94
2023-02-14T17:53:37.037Z,103699.03
2023-02-14T17:56:07.514Z,103706.72
2023-02-14T17:58:37.807Z,103689.13
2023-02-14T18:01:06.856Z,103702.44
2023-02-14T18:03:37.073Z,103697.84
2023-02-14T18:06:06.136Z,103705.47
2023-02-14T18:08:50.425Z,103688.22
2023-02-14T18:11:22.657Z,103712.78
2023-02-14T18:13:58.165Z,103704.72
2023-02-14T18:16:26.458Z,103704.59
2023-02-14T18:19:01.095Z,103699.66
2023-02-14T18:21:35.758Z,103698.50
2023-02-14T18:24:08.715Z,103699.03
2023-02-14T18:26:43.145Z,103682.09
2023-02-14T18:29:20.590Z,103684.63
2023-02-14T18:31:51.144Z,103680.50
2023-02-14T18:34:25.307Z,103687.88
2023-02-14T18:36:53.214Z,103658.50
2023-02-14T18:39:23.482Z,103680.84
2023-02-14T18:41:53.234Z,103657.72
2023-02-14T18:44:22.010Z,103652.31
2023-02-14T18:46:49.972Z,103650.94
2023-02-14T18:49:18.284Z,103647.50
2023-02-14T18:51:46.354Z,103638.88
2023-02-14T18:54:14.477Z,103631.94
2023-02-14T18:56:44.300Z,103621.13
2023-02-14T18:59:13.364Z,103620.38
2023-02-14T19:01:44.375Z,103594.84
2023-02-14T19:04:13.967Z,103579.25
2023-02-14T19:06:43.336Z,103576.50
2023-02-14T19:09:14.144Z,103535.72
2023-02-14T19:11:46.946Z,103544.63
2023-02-14T19:14:15.039Z,103557.94
2023-02-14T19:16:50.269Z,103530.00
2023-02-14T19:19:18.869Z,103515.25
2023-02-14T19:21:47.586Z,103394.59
2023-02-14T19:24:17.746Z,103415.75
2023-02-14T19:26:48.356Z,103396.19
2023-02-14T19:29:18.667Z,103400.00
2023-02-14T19:31:51.775Z,103397.03
2023-02-14T19:34:21.420Z,103381.53
2023-02-14T19:36:51.426Z,103343.50
2023-02-14T19:39:20.114Z,103340.63
2023-02-14T19:41:50.166Z,103335.34
2023-02-14T19:44:19.481Z,103330.94
2023-02-14T19:46:49.762Z,103319.69
2023-02-14T19:49:20.600Z,103301.97
2023-02-14T19:51:51.170Z,103321.47
2023-02-14T19:54:21.965Z,103302.47
2023-02-14T19:56:51.462Z,103294.88
2023-02-14T19:59:25.279Z,103272.06
2023-02-14T20:01:56.933Z,103274.97
2023-02-14T20:04:27.538Z,103260.75
2023-02-14T20:06:57.229Z,103212.84
2023-02-14T20:09:25.675Z,103157.94
2023-02-14T20:11:56.604Z,103110.09
2023-02-14T20:14:26.210Z,103100.03
2023-02-14T20:16:55.893Z,103104.25
2023-02-14T20:19:27.886Z,103093.06
2023-02-14T20:22:02.021Z,103092.97
2023-02-14T20:24:33.643Z,103062.94
2023-02-14T20:27:05.899Z,103062.94
2023-02-14T20:29:38.869Z,103057.81
2023-02-14T20:32:08.481Z,102806.94
2023-02-14T20:34:38.140Z,102832.84
2023-02-14T20:37:06.293Z,102839.31
2023-02-14T20:39:35.933Z,102852.69
2023-02-14T20:42:06.286Z,103081.84
2023-02-14T20:44:34.532Z,103075.13
2023-02-14T20:47:02.653Z,103047.78
2023-02-14T20:49:32.675Z,103078.53
2023-02-14T20:52:01.019Z,103066.81
2023-02-14T20:54:30.321Z,103072.47
2023-02-14T20:56:59.179Z,103052.91
2023-02-14T20:59:29.209Z,103055.84
2023-02-14T21:01:59.425Z,103050.41
2023-02-14T21:04:28.175Z,103059.66
2023-02-14T21:06:57.943Z,103059.13
2023-02-14T21:09:28.381Z,103053.31
2023-02-14T21:11:58.336Z,103060.16
2023-02-14T21:14:26.491Z,103060.75
2023-02-14T21:16:55.900Z,103049.69
2023-02-14T21:19:26.523Z,103043.88
2023-02-14T21:21:55.098Z,103039.91
2023-02-14T21:24:24.405Z,103043.81
2023-02-14T21:26:53.207Z,103044.75
2023-02-14T21:29:21.474Z,103030.66
2023-02-14T21:31:49.683Z,103050.13
2023-02-14T21:34:19.134Z,103019.75
2023-02-14T21:36:48.118Z,103027.44
2023-02-14T21:39:16.509Z,103037.25
2023-02-14T21:41:44.705Z,103016.44
2023-02-14T21:44:32.638Z,103024.53
2023-02-14T21:47:00.691Z,103013.91
2023-02-14T21:49:48.482Z,103015.94
2023-02-14T21:52:16.703Z,103004.59
2023-02-14T21:54:44.674Z,103004.03
2023-02-14T21:57:12.784Z,102996.69
2023-02-14T21:59:41.133Z,102993.03
2023-02-14T22:02:09.277Z,102987.88
2023-02-14T22:04:39.670Z,102995.78
2023-02-14T22:07:07.963Z,102989.22
2023-02-14T22:09:36.204Z,102986.50
2023-02-14T22:12:05.563Z,102959.88
2023-02-14T22:14:33.577Z,102991.09
2023-02-14T22:17:01.587Z,102989.94
2023-02-14T22:19:30.023Z,102974.91
2023-02-14T22:21:59.301Z,102987.34
2023-02-14T22:24:30.042Z,102988.41
2023-02-14T22:26:57.953Z,102988.84
2023-02-14T22:29:26.075Z,102977.25
2023-02-14T22:31:54.196Z,102976.44
2023-02-14T22:34:22.861Z,102977.63
2023-02-14T22:36:53.700Z,102973.16
2023-02-14T22:39:26.901Z,102976.63
2023-02-14T22:41:54.843Z,102972.69
2023-02-14T22:44:22.938Z,102981.53
2023-02-14T22:46:52.079Z,102983.22
2023-02-14T22:49:25.860Z,102990.72
2023-02-14T22:51:59.726Z,102961.03
2023-02-14T22:54:29.148Z,102979.63
2023-02-14T22:56:57.105Z,102975.69
2023-02-14T22:59:28.141Z,102971.75
2023-02-14T23:01:56.826Z,102966.81
2023-02-14T23:04:26.029Z,102965.53
2023-02-14T23:06:55.080Z,102952.22
2023-02-14T23:09:23.680Z,102944.72
2023-02-14T23:11:53.205Z,102959.97
2023-02-14T23:14:39.007Z,102953.13
2023-02-14T23:17:25.830Z,102936.50
2023-02-14T23:20:11.805Z,102950.97
2023-02-14T23:22:41.178Z,102954.66
2023-02-14T23:25:11.122Z,102943.03
2023-02-14T23:27:43.050Z,102949.50
2023-02-14T23:30:13.918Z,102946.56
2023-02-14T23:32:43.094Z,102956.47
2023-02-14T23:35:11.336Z,102944.63
2023-02-14T23:37:41.767Z,102947.53
2023-02-14T23:40:13.970Z,102957.53
2023-02-14T23:42:43.348Z,102948.47
2023-02-14T23:45:29.151Z,102950.84
2023-02-14T23:48:03.022Z,102915.31
2023-02-14T23:50:31.158Z,102924.75
2023-02-14T23:52:59.128Z,102941.69
2023-02-14T23:55:28.074Z,102938.38
2023-02-14T23:57:57.547Z,102929.22
